Terminal Aerodrome Forecast
Issued by NWS

Home | Current Version | Previous Version | Text Only | Print | Product List | Glossary On
Versions: 1 2 3 4 5 6 7 8 9 10 11 12 13 14 15 16 17 18 19 20 21 22 23 24 25 26
000
FTUS41 KOKX 011100
TAFTEB
TAF
KTEB 011132Z 0112/0212 25005KT P6SM BKN050
     FM011900 26005KT P6SM BKN040 OVC200
     FM020200 VRB03KT 2SM -SN BKN005 OVC015
     FM020700 09007KT 1SM -SN OVC005
      TEMPO 0207/0211 1/2SM SN OVC003=

USA.gov is the U.S. government's official web portal to all federal, state and local government web resources and services.